Time;durP1;ratioP1;P1;durP2;ratioP2;P2;SDS_P1;SDS_P2;PMS_P1;PMS_P2;Temp;Humidity;BMP_temperature;BMP_pressure;BME280_temperature;BME280_humidity;BME280_pressure;Samples;Min_cycle;Max_cycle;Signal;HPM_P1;HPM_P2
2021/03/24 00:00:50;;;;;;;4.93;3.75;;;11.50;73.10;;;;;;5111438;28;20043;-48
2021/03/24 00:03:36;;;;;;;5.40;4.47;;;11.40;73.00;;;;;;5095775;28;20044;-50
2021/03/24 00:06:21;;;;;;;6.20;4.63;;;11.40;73.00;;;;;;5108497;28;20051;-49
2021/03/24 00:09:10;;;;;;;6.00;4.40;;;11.40;73.10;;;;;;5111395;28;20537;-49
2021/03/24 00:11:56;;;;;;;6.03;4.30;;;11.40;73.00;;;;;;5111738;28;20085;-45
2021/03/24 00:14:43;;;;;;;5.47;4.55;;;11.40;73.10;;;;;;5111715;28;20397;-47
2021/03/24 00:17:29;;;;;;;5.22;3.78;;;11.50;73.10;;;;;;5111301;28;20101;-50
2021/03/24 00:20:17;;;;;;;5.05;3.95;;;11.40;73.00;;;;;;5111663;28;20055;-50
2021/03/24 00:23:03;;;;;;;5.25;4.13;;;11.50;73.10;;;;;;5140377;27;20134;-47
2021/03/24 00:25:49;;;;;;;5.63;3.63;;;11.40;73.10;;;;;;5113337;28;20108;-48
2021/03/24 00:28:35;;;;;;;5.90;4.13;;;11.50;73.10;;;;;;5115161;28;20056;-50
2021/03/24 00:31:22;;;;;;;5.15;3.67;;;11.40;73.10;;;;;;5115193;28;20052;-47
2021/03/24 00:34:07;;;;;;;5.50;3.92;;;11.40;73.10;;;;;;5115258;28;20062;-49
2021/03/24 00:36:53;;;;;;;5.47;4.13;;;11.40;73.10;;;;;;5115302;28;20054;-48
2021/03/24 00:39:39;;;;;;;6.00;4.10;;;11.40;73.10;;;;;;5095324;28;20050;-48
2021/03/24 00:42:24;;;;;;;4.82;3.80;;;11.50;73.10;;;;;;5106991;28;20507;-46
2021/03/24 00:45:11;;;;;;;;;;;11.40;73.10;;;;;;5115737;28;20112;-45
2021/03/24 00:47:57;;;;;;;4.80;3.65;;;11.40;73.10;;;;;;5114688;28;19965;-44
2021/03/24 00:50:44;;;;;;;5.68;4.35;;;11.40;73.10;;;;;;5114842;28;20401;-46
2021/03/24 00:53:29;;;;;;;5.05;3.90;;;11.40;73.10;;;;;;5115089;28;20091;-44
2021/03/24 00:56:15;;;;;;;6.15;4.28;;;11.40;73.10;;;;;;5115125;28;20055;-46
2021/03/24 00:59:00;;;;;;;6.97;4.40;;;11.40;73.10;;;;;;5114443;28;20052;-45
2021/03/24 01:01:46;;;;;;;4.60;3.50;;;11.50;73.20;;;;;;5114969;28;20043;-44
2021/03/24 01:04:32;;;;;;;5.13;4.03;;;11.40;73.10;;;;;;5114809;28;20446;-45
2021/03/24 01:07:18;;;;;;;5.25;3.95;;;11.40;73.10;;;;;;5114623;28;20051;-44
2021/03/24 01:10:11;;;;;;;6.22;4.85;;;11.50;73.20;;;;;;5114127;28;20495;-43
2021/03/24 01:12:57;;;;;;;6.40;4.20;;;11.40;73.10;;;;;;5134159;27;20104;-44
2021/03/24 01:15:44;;;;;;;6.18;4.72;;;11.40;73.10;;;;;;5115035;28;20051;-44
2021/03/24 01:18:30;;;;;;;6.35;4.38;;;11.40;73.20;;;;;;5114955;28;20096;-44
2021/03/24 01:21:16;;;;;;;6.63;4.35;;;11.50;73.20;;;;;;5114191;28;20083;-44
2021/03/24 01:24:01;;;;;;;5.97;4.25;;;11.40;73.20;;;;;;5114611;28;20051;-44
2021/03/24 01:26:47;;;;;;;;;;;11.50;73.20;;;;;;5101422;28;20054;-44
2021/03/24 01:29:33;;;;;;;5.35;4.00;;;11.40;73.20;;;;;;5114242;28;19926;-45
2021/03/24 01:32:18;;;;;;;5.75;4.05;;;11.40;73.10;;;;;;5113948;28;20039;-45
2021/03/24 01:35:07;;;;;;;5.72;4.03;;;11.40;73.10;;;;;;5113889;28;20047;-44
2021/03/24 01:37:53;;;;;;;5.25;3.85;;;11.40;73.80;;;;;;5129109;27;20047;-44
2021/03/24 01:40:40;;;;;;;;;;;11.40;73.10;;;;;;5114153;28;20051;-44
2021/03/24 01:43:35;;;;;;;4.90;3.70;;;11.40;73.20;;;;;;5113894;28;20426;-43
2021/03/24 01:46:32;;;;;;;6.68;4.43;;;11.40;73.20;;;;;;5114317;28;20491;-44
2021/03/24 01:49:44;;;;;;;6.25;4.38;;;11.40;73.20;;;;;;5114067;28;20059;-41
2021/03/24 01:52:30;;;;;;;6.55;4.45;;;11.40;73.20;;;;;;5113536;28;20055;-42
2021/03/24 01:55:16;;;;;;;5.75;4.20;;;11.40;73.20;;;;;;5113998;28;20083;-43
2021/03/24 01:58:02;;;;;;;6.20;4.32;;;11.40;73.20;;;;;;5114003;28;20048;-43
2021/03/24 02:00:51;;;;;;;6.65;4.95;;;11.40;73.20;;;;;;5113797;28;20058;-45
2021/03/24 02:03:37;;;;;;;6.03;4.05;;;11.40;73.20;;;;;;5111555;28;20047;-45
2021/03/24 02:06:55;;;;;;;4.90;3.70;;;11.40;73.20;;;;;;5113534;28;20071;-48
2021/03/24 02:09:56;;;;;;;5.55;4.13;;;11.50;73.20;;;;;;5057566;28;20057;-42
2021/03/24 02:13:19;;;;;;;6.40;4.45;;;11.40;73.20;;;;;;5085442;28;20528;-46
2021/03/24 02:16:13;;;;;;;5.22;4.18;;;11.40;73.20;;;;;;4959207;28;20059;-46
2021/03/24 02:19:03;;;;;;;5.65;4.38;;;11.40;73.20;;;;;;4959797;28;20059;-47
2021/03/24 02:21:49;;;;;;;7.38;5.00;;;11.40;73.20;;;;;;4959306;28;20050;-45
2021/03/24 02:24:58;;;;;;;6.53;4.47;;;11.40;73.20;;;;;;4984392;28;20075;-45
2021/03/24 02:27:49;;;;;;;6.47;4.55;;;11.40;73.90;;;;;;4959074;28;20061;-46
2021/03/24 02:30:39;;;;;;;6.57;5.05;;;11.40;73.20;;;;;;4959311;28;20090;-47
2021/03/24 02:33:30;;;;;;;6.40;4.38;;;11.40;73.20;;;;;;4958969;28;20066;-46
2021/03/24 02:36:19;;;;;;;6.65;4.65;;;11.40;73.20;;;;;;4958473;28;20042;-44
2021/03/24 02:39:09;;;;;;;6.88;4.95;;;11.40;73.20;;;;;;4959093;28;20144;-47
2021/03/24 02:41:58;;;;;;;8.07;5.18;;;11.50;73.30;;;;;;4940301;29;20448;-46
2021/03/24 02:44:44;;;;;;;6.80;4.50;;;11.40;73.20;;;;;;4973890;28;20050;-43
2021/03/24 02:47:30;;;;;;;6.97;4.20;;;11.40;73.20;;;;;;5017212;28;20053;-44
2021/03/24 02:50:18;;;;;;;6.72;4.70;;;11.40;73.30;;;;;;5017179;28;20451;-44
2021/03/24 02:53:05;;;;;;;5.50;4.35;;;11.40;73.20;;;;;;5083919;28;20082;-48
2021/03/24 02:55:53;;;;;;;7.10;4.93;;;11.40;73.20;;;;;;5112462;28;20059;-47
2021/03/24 02:58:39;;;;;;;6.80;4.72;;;11.40;73.30;;;;;;5113026;28;20047;-50
2021/03/24 03:01:27;;;;;;;;;;;11.40;73.20;;;;;;5112984;28;20086;-48
2021/03/24 03:04:22;;;;;;;5.55;4.40;;;11.40;73.30;;;;;;5112849;28;20297;-46
2021/03/24 03:07:19;;;;;;;7.70;4.87;;;11.40;73.30;;;;;;5112219;28;20104;-49
2021/03/24 03:10:13;;;;;;;5.88;4.80;;;11.40;73.30;;;;;;5112210;28;20059;-50
2021/03/24 03:13:34;;;;;;;7.05;4.63;;;11.40;73.30;;;;;;5112581;28;20122;-50
2021/03/24 03:16:40;;;;;;;7.25;5.35;;;11.40;73.30;;;;;;5112370;28;20043;-47
2021/03/24 03:19:48;;;;;;;6.57;4.68;;;11.40;73.20;;;;;;5112654;28;20048;-49
2021/03/24 03:22:41;;;;;;;6.80;4.43;;;11.40;73.20;;;;;;5112222;28;20666;-48
2021/03/24 03:25:33;;;;;;;6.57;5.13;;;11.40;73.30;;;;;;5111996;28;20047;-47
2021/03/24 03:28:20;;;;;;;6.68;4.57;;;11.40;73.30;;;;;;5111718;28;20055;-48
2021/03/24 03:31:10;;;;;;;6.05;4.75;;;11.40;73.30;;;;;;5112518;28;20078;-47
2021/03/24 03:33:58;;;;;;;7.47;4.90;;;11.40;73.30;;;;;;5112150;28;20556;-50
2021/03/24 03:36:46;;;;;;;7.60;5.57;;;11.40;73.30;;;;;;5112200;28;20044;-51
2021/03/24 03:39:32;;;;;;;8.75;6.13;;;11.40;73.30;;;;;;5111915;28;20078;-48
2021/03/24 03:42:19;;;;;;;7.72;5.60;;;11.40;73.30;;;;;;5111699;28;20369;-44
2021/03/24 03:45:06;;;;;;;7.90;5.30;;;11.50;73.30;;;;;;5111527;28;20119;-46
2021/03/24 03:47:52;;;;;;;8.52;5.63;;;11.40;73.30;;;;;;5111666;28;20146;-47
2021/03/24 03:50:38;;;;;;;;;;;11.50;73.30;;;;;;5112723;28;20085;-44
2021/03/24 03:53:43;;;;;;;6.65;4.75;;;11.40;73.30;;;;;;5112289;28;20116;-46
2021/03/24 03:56:37;;;;;;;6.95;5.20;;;11.40;73.30;;;;;;5111781;28;20054;-46
2021/03/24 04:00:10;;;;;;;6.80;4.75;;;11.40;73.30;;;;;;5112673;28;20105;-47
2021/03/24 04:03:07;;;;;;;8.82;5.65;;;11.40;73.30;;;;;;5145125;27;20053;-44
2021/03/24 04:06:03;;;;;;;7.25;5.10;;;11.40;73.30;;;;;;5095718;28;20481;-44
2021/03/24 04:08:50;;;;;;;8.38;5.72;;;11.40;73.30;;;;;;5112703;28;20050;-43
2021/03/24 04:11:44;;;;;;;6.78;5.20;;;11.40;73.30;;;;;;5115683;28;20539;-44
2021/03/24 04:14:31;;;;;;;7.22;5.40;;;11.40;73.30;;;;;;5132066;27;20044;-45
2021/03/24 04:17:23;;;;;;;7.72;5.10;;;11.40;73.30;;;;;;5135978;27;20054;-43
2021/03/24 04:20:11;;;;;;;8.13;5.72;;;11.40;73.30;;;;;;5115450;28;20067;-45
2021/03/24 04:23:00;;;;;;;7.60;5.60;;;11.40;73.30;;;;;;5115449;28;20492;-45
2021/03/24 04:25:54;;;;;;;6.70;5.10;;;11.40;74.00;;;;;;5115828;28;20058;-44
2021/03/24 04:28:44;;;;;;;8.57;5.97;;;11.40;73.30;;;;;;5094487;28;20059;-44
2021/03/24 04:31:32;;;;;;;8.90;5.70;;;11.40;73.30;;;;;;5110274;28;20047;-45
2021/03/24 04:34:19;;;;;;;8.43;5.85;;;11.40;73.30;;;;;;5115629;28;20047;-44
2021/03/24 04:37:28;;;;;;;8.48;6.07;;;11.40;73.30;;;;;;5115015;28;20048;-45
2021/03/24 04:40:26;;;;;;;8.68;5.18;;;11.40;73.30;;;;;;5115121;28;20043;-43
2021/03/24 04:43:18;;;;;;;8.68;5.70;;;11.40;73.30;;;;;;5123307;27;20396;-46
2021/03/24 04:46:20;;;;;;;7.30;5.10;;;11.40;73.30;;;;;;5105053;28;20067;-43
2021/03/24 04:49:12;;;;;;;10.60;6.22;;;11.40;73.30;;;;;;5114775;28;20092;-43
2021/03/24 04:51:59;;;;;;;9.57;6.10;;;11.30;73.30;;;;;;5103265;28;20071;-45
2021/03/24 04:54:46;;;;;;;7.40;5.40;;;11.40;73.30;;;;;;5115492;28;20058;-47
2021/03/24 04:57:32;;;;;;;7.25;5.28;;;11.40;73.30;;;;;;5114694;28;20078;-45
2021/03/24 05:00:42;;;;;;;7.45;5.25;;;11.40;73.30;;;;;;5114259;28;20048;-47
2021/03/24 05:03:33;;;;;;;8.60;5.93;;;11.40;73.30;;;;;;5114395;28;20531;-45
2021/03/24 05:06:32;;;;;;;9.30;5.63;;;11.40;73.30;;;;;;5114929;28;20047;-47
2021/03/24 05:09:18;;;;;;;10.15;6.90;;;11.40;73.30;;;;;;5114291;28;20043;-46
2021/03/24 05:12:08;;;;;;;9.50;6.05;;;11.40;73.30;;;;;;5113604;28;20039;-46
2021/03/24 05:15:13;;;;;;;8.70;5.95;;;11.40;73.30;;;;;;5114586;28;20066;-45
2021/03/24 05:18:03;;;;;;;8.48;6.43;;;11.40;73.30;;;;;;5114113;28;20047;-44
2021/03/24 05:21:22;;;;;;;9.48;6.25;;;11.40;73.30;;;;;;5099872;28;20051;-48
2021/03/24 05:24:12;;;;;;;10.50;6.65;;;11.40;73.30;;;;;;5104657;28;20044;-45
2021/03/24 05:27:03;;;;;;;9.23;6.20;;;11.40;73.30;;;;;;5110423;28;20480;-44
2021/03/24 05:29:53;;;;;;;7.93;6.05;;;11.40;73.40;;;;;;5114008;28;20148;-46
2021/03/24 05:32:45;;;;;;;9.38;6.50;;;11.40;73.40;;;;;;5114540;28;20051;-46
2021/03/24 05:35:42;;;;;;;11.35;7.00;;;11.40;73.40;;;;;;5114264;28;20048;-44
2021/03/24 05:38:40;;;;;;;7.90;5.63;;;11.40;73.40;;;;;;5107947;28;20048;-44
2021/03/24 05:41:38;;;;;;;7.80;5.60;;;11.40;73.40;;;;;;5143309;27;20052;-45
2021/03/24 05:44:30;;;;;;;7.72;5.72;;;11.40;73.40;;;;;;5113263;28;20491;-45
2021/03/24 05:47:40;;;;;;;9.00;6.20;;;11.40;73.40;;;;;;5114360;28;20063;-45
2021/03/24 05:50:58;;;;;;;8.52;6.20;;;11.40;73.40;;;;;;5114158;28;20051;-43
2021/03/24 05:54:01;;;;;;;10.60;6.30;;;11.40;73.40;;;;;;5100569;28;20059;-46
2021/03/24 05:57:31;;;;;;;9.13;5.95;;;11.40;73.40;;;;;;5113216;28;20047;-44
2021/03/24 06:00:39;;;;;;;8.80;5.65;;;11.40;73.40;;;;;;5113013;28;20411;-46
2021/03/24 06:03:51;;;;;;;8.80;6.57;;;11.40;73.40;;;;;;5114064;28;20047;-43
2021/03/24 06:07:04;;;;;;;9.02;5.72;;;11.40;73.40;;;;;;5113455;28;20047;-44
2021/03/24 06:10:07;;;;;;;10.02;7.07;;;11.40;73.40;;;;;;5114101;28;20083;-46
2021/03/24 06:13:20;;;;;;;8.60;6.32;;;11.40;73.40;;;;;;5113986;28;20051;-47
2021/03/24 06:16:22;;;;;;;9.93;7.00;;;11.40;73.40;;;;;;5113171;28;20244;-46
2021/03/24 06:19:50;;;;;;;10.00;6.80;;;11.40;73.40;;;;;;5113930;28;20048;-44
2021/03/24 06:22:49;;;;;;;9.52;6.32;;;11.40;73.40;;;;;;5113889;28;20052;-44
2021/03/24 06:26:00;;;;;;;9.95;6.75;;;11.40;73.40;;;;;;5113439;28;20522;-44
2021/03/24 06:29:05;;;;;;;9.80;6.35;;;11.40;73.40;;;;;;5112813;28;20512;-44
2021/03/24 06:32:09;;;;;;;11.20;6.80;;;11.40;73.40;;;;;;5113035;28;20415;-43
2021/03/24 06:35:32;;;;;;;10.32;7.55;;;11.40;73.40;;;;;;5113491;28;20060;-45
2021/03/24 06:38:33;;;;;;;9.95;7.05;;;11.40;73.40;;;;;;5112518;28;20076;-43
2021/03/24 06:41:44;;;;;;;9.55;6.70;;;11.40;73.40;;;;;;5113138;28;20136;-44
2021/03/24 06:44:48;;;;;;;10.70;6.57;;;11.40;73.40;;;;;;5113308;28;20043;-46
2021/03/24 06:47:56;;;;;;;11.68;7.15;;;11.40;73.50;;;;;;5112793;28;20047;-42
2021/03/24 06:51:14;;;;;;;10.30;7.47;;;11.40;73.40;;;;;;5112754;28;20051;-45
2021/03/24 06:54:18;;;;;;;10.40;7.32;;;11.40;73.40;;;;;;5113343;28;20051;-48
2021/03/24 06:57:19;;;;;;;9.85;7.30;;;11.40;73.50;;;;;;5098689;28;20491;-44
2021/03/24 07:00:13;;;;;;;10.07;6.90;;;11.30;73.40;;;;;;5112850;28;20071;-48
2021/03/24 07:03:21;;;;;;;11.20;7.53;;;11.30;73.50;;;;;;5112687;28;20055;-46
2021/03/24 07:06:41;;;;;;;10.32;7.22;;;11.40;73.50;;;;;;5098914;28;20106;-45
2021/03/24 07:09:38;;;;;;;10.75;7.10;;;11.40;73.50;;;;;;5112678;28;20048;-47
2021/03/24 07:12:46;;;;;;;11.75;7.85;;;11.40;73.50;;;;;;5112877;28;20093;-46
2021/03/24 07:16:12;;;;;;;12.13;7.20;;;11.40;73.50;;;;;;5111384;28;20407;-48
2021/03/24 07:19:19;;;;;;;10.70;7.00;;;11.40;73.50;;;;;;5111791;28;20063;-41
2021/03/24 07:22:42;;;;;;;10.55;7.28;;;11.40;73.50;;;;;;5112788;28;20471;-42
2021/03/24 07:25:46;;;;;;;10.13;6.82;;;11.40;73.50;;;;;;5112844;28;20131;-43
2021/03/24 07:28:54;;;;;;;10.38;7.07;;;11.40;73.50;;;;;;5112105;28;20075;-40
2021/03/24 07:31:54;;;;;;;10.32;6.72;;;11.40;73.60;;;;;;5112529;28;20446;-41
2021/03/24 07:35:07;;;;;;;12.77;8.05;;;11.40;73.60;;;;;;5111553;28;20056;-37
2021/03/24 07:38:28;;;;;;;9.25;6.70;;;11.40;73.60;;;;;;5112428;28;20377;-48
2021/03/24 07:41:35;;;;;;;10.05;7.00;;;11.40;73.50;;;;;;5112108;28;20396;-46
2021/03/24 07:44:59;;;;;;;12.75;8.45;;;11.40;73.60;;;;;;5092033;28;20047;-47
2021/03/24 07:48:29;;;;;;;11.50;7.53;;;11.40;73.60;;;;;;5091787;28;20052;-45
2021/03/24 07:51:30;;;;;;;66.35;36.03;;;11.40;73.60;;;;;;5106692;28;20515;-43
2021/03/24 07:54:47;;;;;;;57.60;34.33;;;11.90;72.50;;;;;;5140956;27;20044;-42
2021/03/24 07:58:00;;;;;;;58.50;34.28;;;12.40;71.80;;;;;;5112414;28;20054;-44
2021/03/24 08:01:01;;;;;;;58.33;33.78;;;12.60;70.80;;;;;;5111806;28;20086;-43
2021/03/24 08:03:53;;;;;;;56.45;33.10;;;12.60;70.50;;;;;;5111747;28;20476;-40
2021/03/24 08:07:14;;;;;;;50.22;32.25;;;12.60;70.40;;;;;;5141066;27;20138;-42
2021/03/24 08:10:18;;;;;;;54.15;31.20;;;12.60;70.10;;;;;;5112327;28;20043;-40
2021/03/24 08:13:22;;;;;;;51.65;31.63;;;12.50;70.30;;;;;;5111749;28;20058;-40
2021/03/24 08:16:25;;;;;;;50.58;30.98;;;12.40;70.30;;;;;;5140738;27;20452;-40
2021/03/24 08:19:39;;;;;;;51.90;30.83;;;12.40;70.90;;;;;;5111799;28;20048;-39
2021/03/24 08:22:15;;;;;;;52.00;31.60;;;12.30;70.20;;;;;;5112699;28;20126;-42
2021/03/24 08:25:02;;;;;;;49.88;30.48;;;12.20;70.30;;;;;;5113086;28;20047;-44
2021/03/24 08:27:40;;;;;;;54.58;29.85;;;12.20;70.40;;;;;;5112663;28;20052;-42
2021/03/24 08:30:15;;;;;;;48.45;30.15;;;12.10;70.40;;;;;;5112801;28;20056;-39
2021/03/24 08:33:12;;;;;;;48.03;28.90;;;12.10;70.50;;;;;;5112663;28;20039;-40
2021/03/24 08:36:05;;;;;;;47.72;29.20;;;12.10;70.60;;;;;;5112592;28;20104;-45
2021/03/24 08:39:18;;;;;;;45.38;29.23;;;12.10;70.70;;;;;;5112969;28;20126;-41
2021/03/24 08:42:21;;;;;;;43.80;29.33;;;12.10;70.80;;;;;;5112647;28;20484;-44
2021/03/24 08:45:17;;;;;;;43.75;27.67;;;12.00;70.90;;;;;;5111845;28;20047;-46
2021/03/24 08:47:48;;;;;;;47.60;28.35;;;12.00;71.00;;;;;;5115191;28;20510;-39
2021/03/24 08:50:19;;;;;;;45.60;29.88;;;12.00;71.10;;;;;;5116121;28;20136;-41
2021/03/24 08:53:02;;;;;;;44.38;27.60;;;12.00;71.10;;;;;;5116497;28;20075;-40
2021/03/24 08:56:02;;;;;;;47.60;28.33;;;11.90;71.10;;;;;;5115979;27;20048;-39
2021/03/24 08:58:29;;;;;;;42.63;26.38;;;11.90;71.20;;;;;;5116024;28;20115;-41
2021/03/24 09:01:22;;;;;;;45.05;27.05;;;11.90;71.30;;;;;;5116221;28;20048;-41
2021/03/24 09:04:20;;;;;;;41.88;26.58;;;11.90;71.40;;;;;;5116265;28;20047;-41
2021/03/24 09:07:00;;;;;;;42.10;26.48;;;11.90;71.40;;;;;;5114533;28;20055;-39
2021/03/24 09:09:29;;;;;;;37.97;25.65;;;11.90;71.40;;;;;;5115322;28;20561;-39
2021/03/24 09:12:20;;;;;;;42.08;25.90;;;11.90;71.50;;;;;;5116082;28;20438;-43
2021/03/24 09:15:01;;;;;;;39.20;24.38;;;11.90;71.50;;;;;;5116097;28;20059;-40
2021/03/24 09:17:35;;;;;;;40.25;26.48;;;11.90;71.60;;;;;;5115932;28;20039;-41
2021/03/24 09:20:29;;;;;;;39.70;25.63;;;11.90;71.60;;;;;;5115497;28;20070;-42
2021/03/24 09:23:17;;;;;;;37.40;24.38;;;11.90;71.60;;;;;;5115709;28;20081;-46
2021/03/24 09:25:54;;;;;;;36.08;25.45;;;11.90;71.60;;;;;;5115845;28;20395;-44
2021/03/24 09:28:35;;;;;;;39.13;23.95;;;11.90;71.70;;;;;;5115558;28;20119;-43
2021/03/24 09:31:25;;;;;;;39.50;25.38;;;11.90;71.70;;;;;;5115177;28;20051;-43
2021/03/24 09:34:13;;;;;;;36.92;23.55;;;11.90;71.70;;;;;;5115706;28;20047;-46
2021/03/24 09:37:26;;;;;;;37.15;22.75;;;11.90;71.70;;;;;;5115124;28;20163;-44
2021/03/24 09:39:59;;;;;;;37.05;24.23;;;11.90;71.80;;;;;;5097299;28;20083;-50
2021/03/24 09:42:57;;;;;;;33.03;22.90;;;11.90;71.80;;;;;;5115597;28;20085;-47
2021/03/24 09:45:32;;;;;;;35.97;22.50;;;11.90;71.80;;;;;;5032827;28;20061;-45
2021/03/24 09:48:04;;;;;;;34.53;23.40;;;11.90;71.80;;;;;;5032719;28;20056;-43
2021/03/24 09:50:41;;;;;;;37.42;24.70;;;11.90;71.80;;;;;;5032071;28;20052;-43
2021/03/24 09:53:12;;;;;;;32.55;22.23;;;11.90;71.80;;;;;;5031908;28;20100;-43
2021/03/24 09:55:59;;;;;;;34.17;22.33;;;12.00;71.80;;;;;;5032329;28;20391;-46
2021/03/24 09:58:27;;;;;;;35.33;22.60;;;12.00;71.80;;;;;;5032234;28;20061;-46
2021/03/24 10:01:13;;;;;;;34.42;22.92;;;12.00;71.80;;;;;;5032077;28;20526;-46
2021/03/24 10:04:00;;;;;;;34.80;21.52;;;12.00;71.80;;;;;;5032198;28;20140;-45
2021/03/24 10:06:40;;;;;;;33.70;21.50;;;12.00;71.80;;;;;;5032205;28;20411;-48
2021/03/24 10:09:24;;;;;;;31.45;19.98;;;12.00;71.80;;;;;;5031856;28;20442;-45
2021/03/24 10:12:17;;;;;;;30.42;20.35;;;12.00;71.80;;;;;;5031839;28;20076;-40
2021/03/24 10:15:13;;;;;;;30.65;20.15;;;12.00;71.90;;;;;;5031737;28;20140;-45
2021/03/24 10:17:42;;;;;;;30.38;20.85;;;12.00;71.80;;;;;;5032001;28;20045;-45
2021/03/24 10:20:20;;;;;;;31.75;21.42;;;12.00;71.80;;;;;;5031937;28;20148;-41
2021/03/24 10:22:53;;;;;;;30.92;19.65;;;12.00;71.80;;;;;;5087563;28;20135;-42
2021/03/24 10:25:26;;;;;;;27.27;17.95;;;12.00;72.50;;;;;;5094526;28;20052;-40
2021/03/24 10:27:56;;;;;;;26.92;18.35;;;12.00;71.80;;;;;;5094069;28;20048;-42
2021/03/24 10:31:03;;;;;;;27.63;18.58;;;12.10;71.90;;;;;;5094075;28;20142;-41
2021/03/24 10:33:37;;;;;;;26.35;18.13;;;12.10;71.90;;;;;;5040098;28;20048;-45
2021/03/24 10:36:14;;;;;;;29.10;19.25;;;12.10;71.90;;;;;;5051615;28;20045;-42
2021/03/24 10:38:46;;;;;;;26.92;17.65;;;12.10;71.80;;;;;;5051331;28;20041;-48
2021/03/24 10:41:34;;;;;;;27.42;19.38;;;12.10;71.80;;;;;;5051696;28;20048;-42
2021/03/24 10:44:15;;;;;;;24.83;16.77;;;12.10;71.80;;;;;;5051539;28;20056;-46
2021/03/24 10:47:03;;;;;;;28.40;18.73;;;12.10;71.80;;;;;;5051583;28;20053;-42
2021/03/24 10:49:43;;;;;;;26.73;18.27;;;12.10;71.80;;;;;;5050964;28;20493;-42
2021/03/24 10:52:18;;;;;;;23.25;16.33;;;12.10;71.80;;;;;;5051307;28;20048;-43
2021/03/24 10:54:45;;;;;;;;;;;12.10;71.80;;;;;;5051449;28;20118;-43
2021/03/24 10:57:36;;;;;;;27.33;16.67;;;12.20;71.80;;;;;;5051373;28;19944;-45
2021/03/24 11:00:16;;;;;;;24.80;16.80;;;12.10;71.80;;;;;;5043360;28;20095;-41
2021/03/24 11:03:02;;;;;;;23.98;15.77;;;12.20;71.80;;;;;;5050906;28;20048;-41
2021/03/24 11:05:36;;;;;;;24.27;16.63;;;12.20;71.80;;;;;;5051282;28;20045;-42
2021/03/24 11:08:04;;;;;;;24.67;16.13;;;12.20;71.80;;;;;;5055265;28;20493;-42
2021/03/24 11:10:46;;;;;;;24.50;17.20;;;12.20;71.80;;;;;;5112620;28;20131;-43
2021/03/24 11:13:31;;;;;;;23.52;16.05;;;12.20;71.80;;;;;;5113948;28;20047;-42
2021/03/24 11:15:56;;;;;;;21.70;14.57;;;12.20;71.70;;;;;;5113621;28;20044;-43
2021/03/24 11:18:31;;;;;;;24.52;16.17;;;12.20;71.70;;;;;;5113829;28;20089;-43
2021/03/24 11:21:01;;;;;;;22.85;15.25;;;12.20;71.70;;;;;;5113645;28;20122;-47
2021/03/24 11:23:42;;;;;;;21.08;14.20;;;12.20;71.70;;;;;;5113698;28;20553;-42
2021/03/24 11:26:33;;;;;;;22.38;14.18;;;12.30;71.80;;;;;;5113231;27;20407;-44
2021/03/24 11:29:03;;;;;;;21.38;14.80;;;12.30;71.80;;;;;;5113144;28;20551;-46
2021/03/24 11:31:59;;;;;;;18.80;12.98;;;12.30;71.80;;;;;;5113691;28;20043;-50
2021/03/24 11:34:47;;;;;;;19.23;13.60;;;12.30;71.70;;;;;;5113382;28;20043;-52
2021/03/24 11:37:43;;;;;;;19.35;13.48;;;12.30;71.70;;;;;;5113508;28;20507;-45
2021/03/24 11:40:38;;;;;;;19.92;13.23;;;12.30;71.70;;;;;;5113142;28;20050;-42
2021/03/24 11:43:17;;;;;;;21.60;13.82;;;12.30;71.70;;;;;;5113398;28;20051;-42
2021/03/24 11:45:45;;;;;;;20.25;13.07;;;12.30;71.70;;;;;;5113679;28;20052;-42
2021/03/24 11:48:18;;;;;;;19.52;13.70;;;12.30;71.70;;;;;;5113244;28;20480;-46
2021/03/24 11:51:12;;;;;;;17.13;12.35;;;12.40;71.70;;;;;;5113244;28;20043;-47
2021/03/24 11:54:10;;;;;;;20.08;13.90;;;12.30;71.60;;;;;;5050500;28;20057;-42
2021/03/24 11:57:06;;;;;;;17.42;12.88;;;12.40;71.70;;;;;;4990949;28;20201;-48
2021/03/24 11:59:42;;;;;;;;;;;12.30;71.60;;;;;;4991546;28;20609;-43
2021/03/24 12:02:29;;;;;;;16.52;11.40;;;12.40;71.70;;;;;;4991175;28;19922;-43
2021/03/24 12:05:12;;;;;;;16.75;12.05;;;12.40;71.70;;;;;;4991187;28;20125;-45
2021/03/24 12:08:01;;;;;;;20.80;12.45;;;12.40;72.30;;;;;;4991255;28;20085;-50
2021/03/24 12:10:29;;;;;;;16.88;11.50;;;12.40;71.70;;;;;;4990938;28;20047;-45
2021/03/24 12:13:07;;;;;;;16.23;11.32;;;12.40;71.70;;;;;;4990672;28;20047;-43
2021/03/24 12:15:34;;;;;;;16.35;12.13;;;12.40;71.60;;;;;;4991131;28;20117;-46
2021/03/24 12:18:12;;;;;;;17.10;11.93;;;12.40;71.60;;;;;;4991083;28;20121;-47
2021/03/24 12:20:48;;;;;;;15.93;10.85;;;12.40;71.60;;;;;;4992151;28;20050;-47
2021/03/24 12:23:14;;;;;;;14.60;10.50;;;12.50;71.60;;;;;;4994885;28;20050;-43
2021/03/24 12:25:46;;;;;;;16.10;11.02;;;12.50;71.60;;;;;;4994807;28;20142;-44
2021/03/24 12:28:13;;;;;;;15.27;11.00;;;12.50;71.60;;;;;;4994509;28;20050;-46
2021/03/24 12:30:45;;;;;;;13.63;10.50;;;12.40;72.20;;;;;;5033989;28;20068;-45
2021/03/24 12:33:14;;;;;;;15.40;10.88;;;12.40;71.50;;;;;;5094341;28;20040;-46
2021/03/24 12:35:44;;;;;;;13.75;10.30;;;12.50;71.60;;;;;;5096430;28;20079;-44
2021/03/24 12:38:14;;;;;;;14.90;10.75;;;12.50;71.50;;;;;;5097503;28;20036;-44
2021/03/24 12:41:00;;;;;;;13.13;10.27;;;12.50;71.50;;;;;;5109691;28;20046;-47
2021/03/24 12:43:32;;;;;;;12.80;9.60;;;12.50;71.50;;;;;;5116400;28;20047;-47
2021/03/24 12:46:19;;;;;;;14.52;10.88;;;12.50;71.60;;;;;;5115762;28;20069;-45
2021/03/24 12:48:56;;;;;;;14.23;9.75;;;12.50;71.50;;;;;;5116621;28;20051;-45
2021/03/24 12:51:28;;;;;;;13.88;10.23;;;12.50;71.50;;;;;;5116461;28;20074;-44
2021/03/24 12:54:00;;;;;;;12.77;9.27;;;12.50;71.50;;;;;;5115282;28;20083;-44
2021/03/24 12:56:53;;;;;;;13.40;9.25;;;12.60;71.50;;;;;;5116688;28;20048;-44
2021/03/24 12:59:40;;;;;;;14.40;9.60;;;12.50;71.50;;;;;;5116389;28;20082;-42
2021/03/24 13:02:39;;;;;;;12.38;9.30;;;12.50;71.50;;;;;;5115113;28;20118;-43
2021/03/24 13:05:29;;;;;;;11.77;8.40;;;12.60;71.50;;;;;;5116004;28;20075;-43
2021/03/24 13:08:16;;;;;;;12.55;8.88;;;12.60;71.50;;;;;;5115186;28;20044;-47
2021/03/24 13:10:56;;;;;;;13.00;9.02;;;12.60;71.50;;;;;;5115873;28;20040;-47
2021/03/24 13:13:34;;;;;;;12.52;8.60;;;12.60;71.50;;;;;;5095134;28;20799;-48
2021/03/24 13:16:04;;;;;;;11.55;7.97;;;12.60;71.50;;;;;;5095032;28;20044;-47
2021/03/24 13:18:40;;;;;;;11.90;8.07;;;12.60;71.50;;;;;;5095603;28;20048;-47
2021/03/24 13:21:23;;;;;;;11.18;7.72;;;12.60;71.50;;;;;;5095568;28;20052;-44
2021/03/24 13:24:05;;;;;;;9.73;7.50;;;12.60;71.50;;;;;;5114977;28;20050;-46
2021/03/24 13:26:38;;;;;;;11.13;8.27;;;12.60;71.50;;;;;;5115824;28;20046;-46
2021/03/24 13:30:09;;;;;;;9.27;7.22;;;12.60;71.50;;;;;;5114782;28;20130;-46
2021/03/24 13:32:40;;;;;;;10.93;8.13;;;12.60;71.50;;;;;;5059136;28;20161;-48
2021/03/24 13:35:31;;;;;;;11.13;7.88;;;12.60;71.50;;;;;;5092706;28;20130;-44
2021/03/24 13:37:57;;;;;;;10.68;7.97;;;12.60;71.50;;;;;;5092102;28;20048;-45
2021/03/24 13:40:30;;;;;;;9.63;7.30;;;12.60;71.50;;;;;;5092844;28;20063;-45
2021/03/24 13:43:17;;;;;;;9.77;7.50;;;12.60;71.50;;;;;;5088813;28;20530;-44
2021/03/24 13:45:49;;;;;;;8.40;6.85;;;12.60;71.50;;;;;;5071147;28;20068;-45
2021/03/24 13:48:39;;;;;;;10.13;6.78;;;12.60;71.50;;;;;;5072452;28;20063;-44
2021/03/24 13:51:07;;;;;;;10.95;7.22;;;12.60;71.50;;;;;;5072274;28;20097;-47
2021/03/24 13:53:43;;;;;;;9.63;6.63;;;12.60;71.50;;;;;;5071562;28;20085;-45
2021/03/24 13:56:34;;;;;;;8.80;6.78;;;12.60;71.50;;;;;;5072524;28;20467;-44
2021/03/24 13:59:18;;;;;;;7.55;6.40;;;12.60;71.50;;;;;;5054482;28;20064;-43
2021/03/24 14:01:52;;;;;;;10.35;6.55;;;12.60;71.50;;;;;;5072163;28;20048;-43
2021/03/24 14:04:46;;;;;;;7.97;6.18;;;12.60;71.50;;;;;;5071880;28;20573;-45
2021/03/24 14:07:37;;;;;;;9.20;6.50;;;12.60;71.50;;;;;;5112773;28;20408;-44
2021/03/24 14:10:17;;;;;;;8.43;6.22;;;12.60;71.50;;;;;;5115118;28;20043;-44
2021/03/24 14:12:57;;;;;;;9.50;6.90;;;12.60;71.50;;;;;;5114878;28;20124;-44
2021/03/24 14:15:44;;;;;;;9.00;6.35;;;12.60;71.60;;;;;;5113830;28;20047;-44
2021/03/24 14:18:21;;;;;;;9.25;6.35;;;12.60;71.60;;;;;;5114207;28;20164;-46
2021/03/24 14:21:06;;;;;;;8.60;6.38;;;12.60;71.60;;;;;;5112955;28;20392;-43
2021/03/24 14:23:51;;;;;;;7.60;5.90;;;12.60;71.60;;;;;;5114844;28;20044;-46
2021/03/24 14:26:33;;;;;;;7.22;5.88;;;12.60;71.60;;;;;;5114713;28;20075;-47
2021/03/24 14:29:23;;;;;;;8.05;5.55;;;12.60;71.60;;;;;;5113413;28;20043;-42
2021/03/24 14:31:58;;;;;;;8.32;5.85;;;12.60;71.60;;;;;;5113834;28;20039;-45
2021/03/24 14:34:35;;;;;;;7.78;5.82;;;12.60;71.60;;;;;;5112851;28;20720;-41
2021/03/24 14:37:35;;;;;;;6.70;5.40;;;12.60;71.60;;;;;;5112290;28;20039;-45